Tole Mour — WDA5625 — position and weather

sailwx.info

Track history (hours):
 
Tides and Currents Weather Stations Pressure Air Temp Water Temp Dewpoint Dewpoint Depression Visibility Wind Speed Wind Dir Waves Ship Positions

Tole Mour (United States)

The largest working tall ship on the west coast of North America. Former callsign WUV7222.

Ship's website: http://www.tolemour.org/

More information available from US FCC via Universal Licensing System and Coast Guard Vessel Documentation Center.

Last reported at 2014-Jul-23 22:03 UTC. Time now 2014-Jul-24 10:43 UTC.
Position N 33°20' W 118°30'.

Type: Ship. MMSI: 366822140.

Date/timePositionNaut miles runAvg speedWind from/ knotsBaromVisibWave heightAir tempDewpointWater temp
2014-Jul-23 22:03N 33°20' W 118°30'4 7.9
2014-Jul-23 21:33N 33°16' W 118°29'7 6.9
2014-Jul-23 20:33N 33°10' W 118°29'3 3.0
2014-Jul-23 19:33N 33°12' W 118°27'5 5.2
2014-Jul-23 18:33N 33°16' W 118°23'6 5.9
2014-Jul-23 17:33N 33°21' W 118°19'0 0.3
2014-Jul-23 16:33N 33°21' W 118°19'0 0.0
2014-Jul-23 15:33N 33°21' W 118°19'0 0.0
2014-Jul-23 14:24N 33°21' W 118°19'0 0.0
2014-Jul-23 13:33N 33°21' W 118°19'0 0.0
2014-Jul-23 12:33N 33°21' W 118°19'0 0.0
2014-Jul-23 11:33N 33°21' W 118°19'0 0.1
2014-Jul-23 10:33N 33°21' W 118°19'0 0.0
2014-Jul-23 09:33N 33°21' W 118°19'0 0.1
2014-Jul-23 08:33N 33°21' W 118°19'0 0.0
2014-Jul-23 07:30N 33°21' W 118°19'0 0.0
2014-Jul-23 06:33N 33°21' W 118°19'0 0.0
2014-Jul-23 05:30N 33°21' W 118°19'0 0.0
2014-Jul-23 04:24N 33°21' W 118°19'0 0.1
2014-Jul-23 03:33N 33°21' W 118°19'0 0.0
2014-Jul-23 02:30N 33°21' W 118°19'0 0.0
2014-Jul-23 01:30N 33°21' W 118°19'2 2.6
2014-Jul-23 00:33N 33°23' W 118°21'6 6.2
2014-Jul-22 23:33N 33°28' W 118°25'6 5.7
2014-Jul-22 22:33N 33°31' W 118°31'42 0.9
2014-Jul-21 00:15N 32°49' W 118°24'2 3.0
2014-Jul-20 23:32N 32°47' W 118°24'5 2.5
2014-Jul-20 21:33N 32°46' W 118°30'7 0.4
2014-Jul-20 01:33N 32°48' W 118°38'5 4.5
2014-Jul-20 00:32N 32°45' W 118°42'6 4.9
2014-Jul-19 23:20N 32°40' W 118°46'6 5.4
2014-Jul-19 22:17N 32°36' W 118°51'3 4.5
2014-Jul-19 21:31N 32°34' W 118°54'4 3.9
2014-Jul-19 20:28N 32°32' W 118°59'6 6.7
2014-Jul-19 19:30N 32°28' W 119°05'3 1.3
2014-Jul-19 17:15N 32°27' W 119°07'29 5.9
2014-Jul-19 12:19N 32°54' W 119°19'5 6.1
2014-Jul-19 11:31N 32°59' W 119°20'5 5.7
2014-Jul-19 10:33N 33°04' W 119°21'6 5.8
2014-Jul-19 09:32N 33°10' W 119°21'5 4.9
2014-Jul-19 08:32N 33°15' W 119°22'6 5.7
2014-Jul-19 07:28N 33°21' W 119°24'6 4.5
2014-Jul-19 06:13N 33°26' W 119°27'4 4.5
2014-Jul-19 05:20N 33°28' W 119°31'43 5.3
2014-Jul-18 21:14N 34°05' W 119°57'55 1.1
2014-Jul-16 18:33N 33°32' W 119°04'5 0.7
2014-Jul-16 12:05N 33°28' W 119°02'0 0.0
2014-Jul-16 11:29N 33°28' W 119°02'24 1.5
2014-Jul-15 19:28N 33°29' W 118°33'4 0.2
2014-Jul-14 22:34N 33°28' W 118°29'4 0.3
2014-Jul-14 07:15N 33°25' W 118°25'0 0.0
2014-Jul-14 06:09N 33°25' W 118°25'0 0.0
2014-Jul-14 05:33N 33°26' W 118°25'0 0.0
2014-Jul-14 04:33N 33°25' W 118°25'0 0.0
2014-Jul-14 03:33N 33°25' W 118°25'0 0.0
2014-Jul-14 02:06N 33°26' W 118°25'0 0.0
2014-Jul-14 01:33N 33°25' W 118°25'0 0.0
2014-Jul-14 00:33N 33°25' W 118°25'4 4.0
2014-Jul-13 23:33N 33°29' W 118°22'5 4.8
2014-Jul-13 22:34N 33°33' W 118°19'  
Track history (hours):
 
Tides and Currents Weather Stations Pressure Air Temp Water Temp Dewpoint Dewpoint Depression Visibility Wind Speed Wind Dir Waves Ship Positions

Tole Mour (United States)

The largest working tall ship on the west coast of North America. Former callsign WUV7222.

Ship's website: http://www.tolemour.org/

More information available from US FCC via Universal Licensing System and Coast Guard Vessel Documentation Center.

Last reported at 2014-Jul-23 22:03 UTC. Time now 2014-Jul-24 10:43 UTC.
Position N 33°20' W 118°30'.

Type: Ship. MMSI: 366822140.

Date/timePositionNaut miles runAvg speedWind from/ knotsBaromVisibWave heightAir tempDewpointWater temp
2014-Jul-23 22:03N 33°20' W 118°30'4 7.9
2014-Jul-23 21:33N 33°16' W 118°29'7 6.9
2014-Jul-23 20:33N 33°10' W 118°29'3 3.0
2014-Jul-23 19:33N 33°12' W 118°27'5 5.2
2014-Jul-23 18:33N 33°16' W 118°23'6 5.9
2014-Jul-23 17:33N 33°21' W 118°19'0 0.3
2014-Jul-23 16:33N 33°21' W 118°19'0 0.0
2014-Jul-23 15:33N 33°21' W 118°19'0 0.0
2014-Jul-23 14:24N 33°21' W 118°19'0 0.0
2014-Jul-23 13:33N 33°21' W 118°19'0 0.0
2014-Jul-23 12:33N 33°21' W 118°19'0 0.0
2014-Jul-23 11:33N 33°21' W 118°19'0 0.1
2014-Jul-23 10:33N 33°21' W 118°19'0 0.0
2014-Jul-23 09:33N 33°21' W 118°19'0 0.1
2014-Jul-23 08:33N 33°21' W 118°19'0 0.0
2014-Jul-23 07:30N 33°21' W 118°19'0 0.0
2014-Jul-23 06:33N 33°21' W 118°19'0 0.0
2014-Jul-23 05:30N 33°21' W 118°19'0 0.0
2014-Jul-23 04:24N 33°21' W 118°19'0 0.1
2014-Jul-23 03:33N 33°21' W 118°19'0 0.0
2014-Jul-23 02:30N 33°21' W 118°19'0 0.0
2014-Jul-23 01:30N 33°21' W 118°19'2 2.6
2014-Jul-23 00:33N 33°23' W 118°21'6 6.2
2014-Jul-22 23:33N 33°28' W 118°25'6 5.7
2014-Jul-22 22:33N 33°31' W 118°31'42 0.9
2014-Jul-21 00:15N 32°49' W 118°24'2 3.0
2014-Jul-20 23:32N 32°47' W 118°24'5 2.5
2014-Jul-20 21:33N 32°46' W 118°30'7 0.4
2014-Jul-20 01:33N 32°48' W 118°38'5 4.5
2014-Jul-20 00:32N 32°45' W 118°42'6 4.9
2014-Jul-19 23:20N 32°40' W 118°46'6 5.4
2014-Jul-19 22:17N 32°36' W 118°51'3 4.5
2014-Jul-19 21:31N 32°34' W 118°54'4 3.9
2014-Jul-19 20:28N 32°32' W 118°59'6 6.7
2014-Jul-19 19:30N 32°28' W 119°05'3 1.3
2014-Jul-19 17:15N 32°27' W 119°07'29 5.9
2014-Jul-19 12:19N 32°54' W 119°19'5 6.1
2014-Jul-19 11:31N 32°59' W 119°20'5 5.7
2014-Jul-19 10:33N 33°04' W 119°21'6 5.8
2014-Jul-19 09:32N 33°10' W 119°21'5 4.9
2014-Jul-19 08:32N 33°15' W 119°22'6 5.7
2014-Jul-19 07:28N 33°21' W 119°24'6 4.5
2014-Jul-19 06:13N 33°26' W 119°27'4 4.5
2014-Jul-19 05:20N 33°28' W 119°31'43 5.3
2014-Jul-18 21:14N 34°05' W 119°57'55 1.1
2014-Jul-16 18:33N 33°32' W 119°04'5 0.7
2014-Jul-16 12:05N 33°28' W 119°02'0 0.0
2014-Jul-16 11:29N 33°28' W 119°02'24 1.5
2014-Jul-15 19:28N 33°29' W 118°33'4 0.2
2014-Jul-14 22:34N 33°28' W 118°29'4 0.3
2014-Jul-14 07:15N 33°25' W 118°25'0 0.0
2014-Jul-14 06:09N 33°25' W 118°25'0 0.0
2014-Jul-14 05:33N 33°26' W 118°25'0 0.0
2014-Jul-14 04:33N 33°25' W 118°25'0 0.0
2014-Jul-14 03:33N 33°25' W 118°25'0 0.0
2014-Jul-14 02:06N 33°26' W 118°25'0 0.0
2014-Jul-14 01:33N 33°25' W 118°25'0 0.0
2014-Jul-14 00:33N 33°25' W 118°25'4 4.0
2014-Jul-13 23:33N 33°29' W 118°22'5 4.8
2014-Jul-13 22:34N 33°33' W 118°19'  

Dump ship's entire track history